sensor_id;sensor_type;location;lat;lon;timestamp;pressure;altitude;pressure_sealevel;temperature;humidity
9672;BME280;4874;43.568;27.824;2022-12-16T00:00:47;99135.25;;;5.16;100.00
9672;BME280;4874;43.568;27.824;2022-12-16T00:03:14;99132.63;;;5.16;100.00
9672;BME280;4874;43.568;27.824;2022-12-16T00:05:40;99113.38;;;4.90;100.00
9672;BME280;4874;43.568;27.824;2022-12-16T00:08:09;99111.97;;;5.22;100.00
9672;BME280;4874;43.568;27.824;2022-12-16T00:10:36;99098.31;;;5.17;100.00
9672;BME280;4874;43.568;27.824;2022-12-16T00:13:18;99101.69;;;5.19;100.00
9672;BME280;4874;43.568;27.824;2022-12-16T00:15:44;99108.28;;;5.25;100.00
9672;BME280;4874;43.568;27.824;2022-12-16T00:18:14;99117.47;;;5.07;100.00
9672;BME280;4874;43.568;27.824;2022-12-16T00:20:48;99103.97;;;5.24;100.00
9672;BME280;4874;43.568;27.824;2022-12-16T00:23:15;99099.84;;;5.32;100.00
9672;BME280;4874;43.568;27.824;2022-12-16T00:25:42;99103.66;;;5.28;100.00
9672;BME280;4874;43.568;27.824;2022-12-16T00:28:09;99094.41;;;5.23;100.00
9672;BME280;4874;43.568;27.824;2022-12-16T00:30:36;99105.03;;;5.21;100.00
9672;BME280;4874;43.568;27.824;2022-12-16T00:33:03;99102.09;;;5.26;100.00
9672;BME280;4874;43.568;27.824;2022-12-16T00:35:30;99098.94;;;5.21;100.00
9672;BME280;4874;43.568;27.824;2022-12-16T00:37:57;99100.00;;;5.06;100.00
9672;BME280;4874;43.568;27.824;2022-12-16T00:40:24;99095.16;;;5.00;100.00
9672;BME280;4874;43.568;27.824;2022-12-16T00:42:51;99084.34;;;4.92;100.00
9672;BME280;4874;43.568;27.824;2022-12-16T00:45:17;99095.69;;;5.05;100.00
9672;BME280;4874;43.568;27.824;2022-12-16T00:47:48;99107.75;;;5.20;100.00
9672;BME280;4874;43.568;27.824;2022-12-16T00:50:15;99079.69;;;5.08;100.00
9672;BME280;4874;43.568;27.824;2022-12-16T00:52:42;99089.16;;;4.98;100.00
9672;BME280;4874;43.568;27.824;2022-12-16T00:55:09;99084.88;;;4.97;100.00
9672;BME280;4874;43.568;27.824;2022-12-16T00:57:36;99067.38;;;5.08;100.00
9672;BME280;4874;43.568;27.824;2022-12-16T01:00:02;99068.13;;;5.10;100.00
9672;BME280;4874;43.568;27.824;2022-12-16T01:02:30;99071.03;;;5.31;100.00
9672;BME280;4874;43.568;27.824;2022-12-16T01:04:57;99060.50;;;5.31;100.00
9672;BME280;4874;43.568;27.824;2022-12-16T01:07:24;99054.25;;;5.32;100.00
9672;BME280;4874;43.568;27.824;2022-12-16T01:09:50;99059.09;;;5.38;100.00
9672;BME280;4874;43.568;27.824;2022-12-16T01:12:17;99062.75;;;5.48;100.00
9672;BME280;4874;43.568;27.824;2022-12-16T01:14:44;99051.72;;;5.43;100.00
9672;BME280;4874;43.568;27.824;2022-12-16T01:17:10;99052.34;;;5.46;100.00
9672;BME280;4874;43.568;27.824;2022-12-16T01:19:37;99034.72;;;5.47;100.00
9672;BME280;4874;43.568;27.824;2022-12-16T01:22:03;99045.13;;;5.61;100.00
9672;BME280;4874;43.568;27.824;2022-12-16T01:24:30;99052.78;;;5.64;100.00
9672;BME280;4874;43.568;27.824;2022-12-16T01:26:56;99055.53;;;5.62;100.00
9672;BME280;4874;43.568;27.824;2022-12-16T01:29:23;99053.59;;;5.77;100.00
9672;BME280;4874;43.568;27.824;2022-12-16T01:31:50;99062.53;;;5.74;100.00
9672;BME280;4874;43.568;27.824;2022-12-16T01:34:17;99058.59;;;5.69;100.00
9672;BME280;4874;43.568;27.824;2022-12-16T01:36:44;99052.97;;;5.73;100.00
9672;BME280;4874;43.568;27.824;2022-12-16T01:39:10;99057.69;;;5.81;100.00
9672;BME280;4874;43.568;27.824;2022-12-16T01:41:37;99065.16;;;5.74;100.00
9672;BME280;4874;43.568;27.824;2022-12-16T01:44:14;99065.50;;;5.82;100.00
9672;BME280;4874;43.568;27.824;2022-12-16T01:46:42;99068.03;;;5.84;100.00
9672;BME280;4874;43.568;27.824;2022-12-16T01:49:14;99063.50;;;5.86;100.00
9672;BME280;4874;43.568;27.824;2022-12-16T01:51:42;99072.41;;;5.96;100.00
9672;BME280;4874;43.568;27.824;2022-12-16T01:54:25;99071.78;;;5.92;100.00
9672;BME280;4874;43.568;27.824;2022-12-16T01:56:54;99056.22;;;5.89;100.00
9672;BME280;4874;43.568;27.824;2022-12-16T01:59:21;99059.97;;;6.09;100.00
9672;BME280;4874;43.568;27.824;2022-12-16T02:01:50;99062.84;;;6.06;100.00
9672;BME280;4874;43.568;27.824;2022-12-16T02:04:17;99069.34;;;6.13;100.00
9672;BME280;4874;43.568;27.824;2022-12-16T02:06:44;99068.16;;;6.17;100.00
9672;BME280;4874;43.568;27.824;2022-12-16T02:09:11;99063.97;;;6.15;100.00
9672;BME280;4874;43.568;27.824;2022-12-16T02:11:53;99053.31;;;6.16;100.00
9672;BME280;4874;43.568;27.824;2022-12-16T02:40:27;99011.56;;;6.67;100.00
9672;BME280;4874;43.568;27.824;2022-12-16T02:43:03;99024.19;;;6.74;100.00
9672;BME280;4874;43.568;27.824;2022-12-16T02:45:30;99029.09;;;6.79;100.00
9672;BME280;4874;43.568;27.824;2022-12-16T02:47:57;99036.78;;;6.93;100.00
9672;BME280;4874;43.568;27.824;2022-12-16T02:50:41;99042.53;;;6.98;100.00
9672;BME280;4874;43.568;27.824;2022-12-16T02:53:10;99042.66;;;6.96;100.00
9672;BME280;4874;43.568;27.824;2022-12-16T02:55:43;99048.66;;;6.98;100.00
9672;BME280;4874;43.568;27.824;2022-12-16T02:58:18;99056.56;;;7.21;100.00
9672;BME280;4874;43.568;27.824;2022-12-16T03:03:33;99048.53;;;7.33;100.00
9672;BME280;4874;43.568;27.824;2022-12-16T03:06:02;99059.28;;;7.52;100.00
9672;BME280;4874;43.568;27.824;2022-12-16T03:08:34;99057.94;;;7.58;100.00
9672;BME280;4874;43.568;27.824;2022-12-16T03:11:03;99049.06;;;7.59;100.00
9672;BME280;4874;43.568;27.824;2022-12-16T03:13:40;99045.72;;;7.57;100.00
9672;BME280;4874;43.568;27.824;2022-12-16T03:16:08;99052.19;;;7.64;100.00
9672;BME280;4874;43.568;27.824;2022-12-16T03:18:37;99039.22;;;7.61;100.00
9672;BME280;4874;43.568;27.824;2022-12-16T03:21:05;99041.28;;;7.57;100.00
9672;BME280;4874;43.568;27.824;2022-12-16T03:23:35;99036.66;;;7.70;100.00
9672;BME280;4874;43.568;27.824;2022-12-16T03:26:15;99031.75;;;7.66;100.00
9672;BME280;4874;43.568;27.824;2022-12-16T03:34:03;99037.13;;;7.75;100.00
9672;BME280;4874;43.568;27.824;2022-12-16T03:36:33;99032.41;;;7.90;100.00
9672;BME280;4874;43.568;27.824;2022-12-16T03:39:02;99033.22;;;7.90;100.00
9672;BME280;4874;43.568;27.824;2022-12-16T03:41:29;99027.19;;;7.99;100.00
9672;BME280;4874;43.568;27.824;2022-12-16T03:43:57;99020.28;;;8.08;100.00
9672;BME280;4874;43.568;27.824;2022-12-16T03:46:24;99016.28;;;7.93;100.00
9672;BME280;4874;43.568;27.824;2022-12-16T03:48:51;99016.00;;;8.07;100.00
9672;BME280;4874;43.568;27.824;2022-12-16T03:51:19;99008.38;;;8.13;100.00
9672;BME280;4874;43.568;27.824;2022-12-16T03:53:46;98894.94;;;7.49;100.00
9672;BME280;4874;43.568;27.824;2022-12-16T03:56:12;99003.53;;;8.18;100.00
9672;BME280;4874;43.568;27.824;2022-12-16T03:58:39;98999.47;;;8.14;100.00
9672;BME280;4874;43.568;27.824;2022-12-16T04:01:06;99012.53;;;8.27;100.00
9672;BME280;4874;43.568;27.824;2022-12-16T04:03:35;99018.69;;;8.27;100.00
9672;BME280;4874;43.568;27.824;2022-12-16T04:06:02;99017.97;;;8.25;100.00
9672;BME280;4874;43.568;27.824;2022-12-16T04:08:29;99033.56;;;8.28;100.00
9672;BME280;4874;43.568;27.824;2022-12-16T04:10:56;99028.16;;;8.30;100.00
9672;BME280;4874;43.568;27.824;2022-12-16T04:13:41;99031.63;;;8.30;100.00
9672;BME280;4874;43.568;27.824;2022-12-16T04:16:26;99036.53;;;8.35;100.00
9672;BME280;4874;43.568;27.824;2022-12-16T04:19:20;99030.47;;;8.23;100.00
9672;BME280;4874;43.568;27.824;2022-12-16T04:22:13;99031.56;;;8.42;100.00
9672;BME280;4874;43.568;27.824;2022-12-16T04:25:04;99027.97;;;8.43;100.00
9672;BME280;4874;43.568;27.824;2022-12-16T04:27:31;99026.16;;;8.64;100.00
9672;BME280;4874;43.568;27.824;2022-12-16T04:29:58;99025.81;;;8.57;100.00
9672;BME280;4874;43.568;27.824;2022-12-16T04:32:43;99025.44;;;8.62;100.00
9672;BME280;4874;43.568;27.824;2022-12-16T04:35:28;99015.13;;;8.59;100.00
9672;BME280;4874;43.568;27.824;2022-12-16T04:38:13;99018.09;;;8.65;100.00
9672;BME280;4874;43.568;27.824;2022-12-16T04:40:58;99023.81;;;8.70;100.00
9672;BME280;4874;43.568;27.824;2022-12-16T04:43:43;99029.09;;;8.70;100.00
9672;BME280;4874;43.568;27.824;2022-12-16T04:46:28;99025.88;;;8.97;100.00
9672;BME280;4874;43.568;27.824;2022-12-16T04:49:13;99032.06;;;8.77;100.00
9672;BME280;4874;43.568;27.824;2022-12-16T04:51:58;99040.88;;;8.87;100.00
9672;BME280;4874;43.568;27.824;2022-12-16T04:54:43;99029.84;;;8.82;100.00
9672;BME280;4874;43.568;27.824;2022-12-16T04:57:28;99037.81;;;8.82;100.00
9672;BME280;4874;43.568;27.824;2022-12-16T05:00:13;99036.13;;;8.81;100.00
9672;BME280;4874;43.568;27.824;2022-12-16T05:02:58;99030.44;;;8.85;100.00
9672;BME280;4874;43.568;27.824;2022-12-16T05:05:43;99025.00;;;8.87;100.00
9672;BME280;4874;43.568;27.824;2022-12-16T05:08:28;99008.81;;;8.80;100.00
9672;BME280;4874;43.568;27.824;2022-12-16T05:11:13;99010.75;;;8.78;100.00
9672;BME280;4874;43.568;27.824;2022-12-16T05:13:58;99016.41;;;8.94;100.00
9672;BME280;4874;43.568;27.824;2022-12-16T05:16:43;99037.25;;;9.08;100.00
9672;BME280;4874;43.568;27.824;2022-12-16T05:19:28;99051.03;;;9.12;100.00
9672;BME280;4874;43.568;27.824;2022-12-16T05:22:13;99060.84;;;9.21;100.00
9672;BME280;4874;43.568;27.824;2022-12-16T05:24:57;99057.44;;;9.09;100.00
9672;BME280;4874;43.568;27.824;2022-12-16T05:27:42;99050.47;;;9.08;100.00
9672;BME280;4874;43.568;27.824;2022-12-16T05:30:27;99047.22;;;9.25;100.00
9672;BME280;4874;43.568;27.824;2022-12-16T05:33:12;99034.78;;;9.26;100.00
9672;BME280;4874;43.568;27.824;2022-12-16T05:35:58;99039.22;;;9.16;100.00
9672;BME280;4874;43.568;27.824;2022-12-16T05:38:43;99031.41;;;9.14;100.00
9672;BME280;4874;43.568;27.824;2022-12-16T05:41:28;99025.44;;;9.22;100.00
9672;BME280;4874;43.568;27.824;2022-12-16T05:44:13;99034.06;;;9.24;100.00
9672;BME280;4874;43.568;27.824;2022-12-16T05:46:57;99019.88;;;9.25;100.00
9672;BME280;4874;43.568;27.824;2022-12-16T05:49:42;99017.59;;;9.11;100.00
9672;BME280;4874;43.568;27.824;2022-12-16T05:52:27;99012.00;;;9.14;100.00
9672;BME280;4874;43.568;27.824;2022-12-16T05:55:12;99008.28;;;9.16;100.00
9672;BME280;4874;43.568;27.824;2022-12-16T05:57:59;99008.03;;;9.29;100.00
9672;BME280;4874;43.568;27.824;2022-12-16T06:00:44;99023.81;;;9.30;100.00
9672;BME280;4874;43.568;27.824;2022-12-16T06:03:29;99028.91;;;9.22;100.00
9672;BME280;4874;43.568;27.824;2022-12-16T06:06:14;99028.09;;;9.31;100.00
9672;BME280;4874;43.568;27.824;2022-12-16T06:08:59;99033.56;;;9.39;100.00
9672;BME280;4874;43.568;27.824;2022-12-16T06:11:44;99033.56;;;9.39;100.00
9672;BME280;4874;43.568;27.824;2022-12-16T06:14:29;99025.63;;;9.39;100.00
9672;BME280;4874;43.568;27.824;2022-12-16T06:17:14;99038.56;;;9.23;100.00
9672;BME280;4874;43.568;27.824;2022-12-16T06:19:59;99008.16;;;9.27;100.00
9672;BME280;4874;43.568;27.824;2022-12-16T06:22:49;99003.84;;;9.36;100.00
9672;BME280;4874;43.568;27.824;2022-12-16T06:25:34;98997.31;;;9.40;100.00
9672;BME280;4874;43.568;27.824;2022-12-16T06:28:19;99009.63;;;9.50;100.00
9672;BME280;4874;43.568;27.824;2022-12-16T06:31:09;99003.50;;;9.98;100.00
9672;BME280;4874;43.568;27.824;2022-12-16T06:33:54;99011.59;;;9.68;100.00
9672;BME280;4874;43.568;27.824;2022-12-16T06:36:40;99011.28;;;9.51;100.00
9672;BME280;4874;43.568;27.824;2022-12-16T06:39:25;99013.41;;;9.58;100.00
9672;BME280;4874;43.568;27.824;2022-12-16T06:42:15;99019.66;;;9.57;100.00
9672;BME280;4874;43.568;27.824;2022-12-16T06:45:00;99020.09;;;9.62;100.00
9672;BME280;4874;43.568;27.824;2022-12-16T06:47:44;99019.41;;;9.60;100.00
9672;BME280;4874;43.568;27.824;2022-12-16T06:50:31;99006.03;;;9.61;100.00
9672;BME280;4874;43.568;27.824;2022-12-16T06:53:20;99000.28;;;9.66;100.00
9672;BME280;4874;43.568;27.824;2022-12-16T06:56:05;99015.66;;;9.72;100.00
9672;BME280;4874;43.568;27.824;2022-12-16T06:58:50;99021.06;;;9.70;100.00
9672;BME280;4874;43.568;27.824;2022-12-16T07:01:35;99027.38;;;9.98;100.00
9672;BME280;4874;43.568;27.824;2022-12-16T07:04:20;99019.97;;;9.73;100.00
9672;BME280;4874;43.568;27.824;2022-12-16T07:07:05;99024.19;;;9.75;100.00
9672;BME280;4874;43.568;27.824;2022-12-16T07:09:50;99004.91;;;9.83;100.00
9672;BME280;4874;43.568;27.824;2022-12-16T07:12:35;99007.03;;;9.89;100.00
9672;BME280;4874;43.568;27.824;2022-12-16T07:15:20;99004.94;;;9.92;100.00
9672;BME280;4874;43.568;27.824;2022-12-16T07:18:05;99016.09;;;9.96;100.00
9672;BME280;4874;43.568;27.824;2022-12-16T07:20:50;99031.75;;;10.08;100.00
9672;BME280;4874;43.568;27.824;2022-12-16T07:23:35;99035.81;;;10.31;100.00
9672;BME280;4874;43.568;27.824;2022-12-16T07:26:20;99011.34;;;10.37;100.00
9672;BME280;4874;43.568;27.824;2022-12-16T07:29:05;99011.66;;;10.25;100.00
9672;BME280;4874;43.568;27.824;2022-12-16T07:31:50;99016.25;;;10.32;100.00
9672;BME280;4874;43.568;27.824;2022-12-16T07:34:35;98911.72;;;9.78;100.00
9672;BME280;4874;43.568;27.824;2022-12-16T07:37:20;99011.72;;;10.61;100.00
9672;BME280;4874;43.568;27.824;2022-12-16T07:40:05;99019.53;;;10.63;100.00
9672;BME280;4874;43.568;27.824;2022-12-16T07:42:51;99009.59;;;11.38;100.00
9672;BME280;4874;43.568;27.824;2022-12-16T07:45:53;98996.84;;;10.88;100.00
9672;BME280;4874;43.568;27.824;2022-12-16T07:48:38;98991.13;;;10.73;100.00
9672;BME280;4874;43.568;27.824;2022-12-16T07:51:23;99002.00;;;10.89;100.00
9672;BME280;4874;43.568;27.824;2022-12-16T07:54:08;99004.81;;;10.78;100.00
9672;BME280;4874;43.568;27.824;2022-12-16T07:56:53;98986.09;;;10.80;100.00
9672;BME280;4874;43.568;27.824;2022-12-16T07:59:38;98990.38;;;10.90;100.00
9672;BME280;4874;43.568;27.824;2022-12-16T08:02:24;98994.56;;;10.93;100.00
9672;BME280;4874;43.568;27.824;2022-12-16T08:05:09;98995.81;;;10.98;100.00
9672;BME280;4874;43.568;27.824;2022-12-16T08:07:54;98995.44;;;10.84;100.00
9672;BME280;4874;43.568;27.824;2022-12-16T08:10:40;98990.81;;;10.86;100.00
9672;BME280;4874;43.568;27.824;2022-12-16T08:13:25;98993.34;;;10.87;100.00
9672;BME280;4874;43.568;27.824;2022-12-16T08:16:09;98992.72;;;11.03;100.00
9672;BME280;4874;43.568;27.824;2022-12-16T08:18:55;98988.78;;;11.07;100.00
9672;BME280;4874;43.568;27.824;2022-12-16T08:21:40;98986.81;;;11.09;100.00
9672;BME280;4874;43.568;27.824;2022-12-16T08:24:25;98974.09;;;11.12;100.00
9672;BME280;4874;43.568;27.824;2022-12-16T08:27:16;98977.47;;;11.05;100.00
9672;BME280;4874;43.568;27.824;2022-12-16T08:30:02;98971.69;;;11.09;100.00
9672;BME280;4874;43.568;27.824;2022-12-16T08:32:47;98979.41;;;11.12;100.00
9672;BME280;4874;43.568;27.824;2022-12-16T08:35:43;98983.22;;;11.27;100.00
9672;BME280;4874;43.568;27.824;2022-12-16T08:38:28;98983.63;;;11.32;100.00
9672;BME280;4874;43.568;27.824;2022-12-16T08:41:13;98981.03;;;11.40;100.00
9672;BME280;4874;43.568;27.824;2022-12-16T08:43:58;98981.16;;;11.21;100.00
9672;BME280;4874;43.568;27.824;2022-12-16T08:46:42;98982.63;;;11.33;100.00
9672;BME280;4874;43.568;27.824;2022-12-16T08:49:28;98980.16;;;11.49;100.00
9672;BME280;4874;43.568;27.824;2022-12-16T08:52:13;98993.06;;;11.44;100.00
9672;BME280;4874;43.568;27.824;2022-12-16T08:54:58;98991.44;;;11.34;100.00
9672;BME280;4874;43.568;27.824;2022-12-16T08:57:43;98994.84;;;11.53;100.00
9672;BME280;4874;43.568;27.824;2022-12-16T09:00:36;98998.00;;;11.66;100.00
9672;BME280;4874;43.568;27.824;2022-12-16T09:03:21;98989.91;;;11.58;100.00
9672;BME280;4874;43.568;27.824;2022-12-16T09:06:06;98979.53;;;11.82;100.00
9672;BME280;4874;43.568;27.824;2022-12-16T09:08:51;98965.25;;;11.83;100.00
9672;BME280;4874;43.568;27.824;2022-12-16T09:11:36;98972.22;;;11.84;100.00
9672;BME280;4874;43.568;27.824;2022-12-16T09:14:20;98967.16;;;11.73;100.00
9672;BME280;4874;43.568;27.824;2022-12-16T09:17:06;98950.03;;;11.94;100.00
9672;BME280;4874;43.568;27.824;2022-12-16T09:19:50;98943.75;;;11.95;100.00
9672;BME280;4874;43.568;27.824;2022-12-16T09:22:49;98941.00;;;12.30;100.00
9672;BME280;4874;43.568;27.824;2022-12-16T09:25:34;98925.28;;;12.19;100.00
9672;BME280;4874;43.568;27.824;2022-12-16T09:28:19;98921.91;;;12.34;100.00
9672;BME280;4874;43.568;27.824;2022-12-16T09:31:04;98903.47;;;12.66;100.00
9672;BME280;4874;43.568;27.824;2022-12-16T09:33:49;98901.84;;;12.48;100.00
9672;BME280;4874;43.568;27.824;2022-12-16T09:36:35;98898.00;;;12.76;100.00
9672;BME280;4874;43.568;27.824;2022-12-16T09:39:20;98903.84;;;12.79;100.00
9672;BME280;4874;43.568;27.824;2022-12-16T09:42:08;98919.00;;;12.79;100.00
9672;BME280;4874;43.568;27.824;2022-12-16T09:44:59;98925.22;;;13.21;100.00
9672;BME280;4874;43.568;27.824;2022-12-16T09:48:06;98926.88;;;13.22;100.00
9672;BME280;4874;43.568;27.824;2022-12-16T09:50:55;98926.09;;;13.38;100.00
9672;BME280;4874;43.568;27.824;2022-12-16T09:53:41;98910.03;;;13.22;100.00
9672;BME280;4874;43.568;27.824;2022-12-16T09:56:43;98913.94;;;13.51;100.00
9672;BME280;4874;43.568;27.824;2022-12-16T09:59:36;98912.97;;;14.49;100.00
9672;BME280;4874;43.568;27.824;2022-12-16T10:02:24;98891.91;;;14.62;100.00
9672;BME280;4874;43.568;27.824;2022-12-16T10:05:10;98887.13;;;13.69;100.00
9672;BME280;4874;43.568;27.824;2022-12-16T10:13:52;98865.63;;;13.78;100.00
9672;BME280;4874;43.568;27.824;2022-12-16T10:16:48;98878.13;;;13.94;100.00
9672;BME280;4874;43.568;27.824;2022-12-16T10:22:23;98868.47;;;13.93;100.00
9672;BME280;4874;43.568;27.824;2022-12-16T10:25:16;98885.63;;;14.23;100.00
9672;BME280;4874;43.568;27.824;2022-12-16T10:28:14;98887.88;;;14.66;100.00
9672;BME280;4874;43.568;27.824;2022-12-16T10:31:01;98906.09;;;14.54;100.00
9672;BME280;4874;43.568;27.824;2022-12-16T10:33:46;98902.09;;;14.58;100.00
9672;BME280;4874;43.568;27.824;2022-12-16T10:36:32;98898.25;;;14.69;100.00
9672;BME280;4874;43.568;27.824;2022-12-16T10:39:32;98888.88;;;14.65;100.00
9672;BME280;4874;43.568;27.824;2022-12-16T10:42:27;98868.19;;;14.67;100.00
9672;BME280;4874;43.568;27.824;2022-12-16T10:45:16;98861.59;;;14.85;100.00
9672;BME280;4874;43.568;27.824;2022-12-16T10:48:02;98865.97;;;15.09;100.00
9672;BME280;4874;43.568;27.824;2022-12-16T10:50:47;98868.22;;;15.28;100.00
9672;BME280;4874;43.568;27.824;2022-12-16T10:53:32;98874.34;;;15.37;100.00
9672;BME280;4874;43.568;27.824;2022-12-16T10:59:21;98873.63;;;15.51;100.00
9672;BME280;4874;43.568;27.824;2022-12-16T11:05:00;98872.13;;;15.71;100.00
9672;BME280;4874;43.568;27.824;2022-12-16T11:10:33;98886.66;;;15.76;100.00
9672;BME280;4874;43.568;27.824;2022-12-16T11:16:05;98846.06;;;16.24;100.00
9672;BME280;4874;43.568;27.824;2022-12-16T11:18:50;98832.28;;;16.27;100.00
9672;BME280;4874;43.568;27.824;2022-12-16T11:21:35;98829.56;;;16.13;100.00
9672;BME280;4874;43.568;27.824;2022-12-16T11:24:20;98807.63;;;16.17;100.00
9672;BME280;4874;43.568;27.824;2022-12-16T11:27:26;98789.69;;;16.03;100.00
9672;BME280;4874;43.568;27.824;2022-12-16T11:30:18;98797.00;;;16.09;100.00
9672;BME280;4874;43.568;27.824;2022-12-16T11:33:25;98787.31;;;16.23;100.00
9672;BME280;4874;43.568;27.824;2022-12-16T11:36:10;98780.38;;;16.28;100.00
9672;BME280;4874;43.568;27.824;2022-12-16T11:38:58;98771.50;;;16.42;100.00
9672;BME280;4874;43.568;27.824;2022-12-16T11:41:44;98795.09;;;16.47;100.00
9672;BME280;4874;43.568;27.824;2022-12-16T11:44:34;98795.16;;;16.83;100.00
9672;BME280;4874;43.568;27.824;2022-12-16T11:47:22;98791.31;;;16.92;100.00
9672;BME280;4874;43.568;27.824;2022-12-16T11:50:12;98794.66;;;16.94;100.00
9672;BME280;4874;43.568;27.824;2022-12-16T11:52:58;98800.38;;;17.05;100.00
9672;BME280;4874;43.568;27.824;2022-12-16T11:55:44;98806.34;;;17.07;100.00
9672;BME280;4874;43.568;27.824;2022-12-16T11:58:47;98799.72;;;17.24;100.00
9672;BME280;4874;43.568;27.824;2022-12-16T12:01:36;98797.25;;;17.44;100.00
9672;BME280;4874;43.568;27.824;2022-12-16T12:04:22;98807.88;;;17.31;100.00
9672;BME280;4874;43.568;27.824;2022-12-16T12:07:19;98789.16;;;17.37;100.00
9672;BME280;4874;43.568;27.824;2022-12-16T12:13:15;98777.09;;;17.48;100.00
9672;BME280;4874;43.568;27.824;2022-12-16T12:16:17;98794.50;;;17.16;100.00
9672;BME280;4874;43.568;27.824;2022-12-16T12:19:07;98802.63;;;17.44;100.00
9672;BME280;4874;43.568;27.824;2022-12-16T12:24:52;98795.53;;;17.36;100.00
9672;BME280;4874;43.568;27.824;2022-12-16T12:30:24;98793.41;;;17.46;100.00
9672;BME280;4874;43.568;27.824;2022-12-16T12:36:03;98806.97;;;17.87;100.00
9672;BME280;4874;43.568;27.824;2022-12-16T12:38:56;98802.31;;;17.75;100.00
9672;BME280;4874;43.568;27.824;2022-12-16T12:44:57;98800.63;;;17.31;100.00
9672;BME280;4874;43.568;27.824;2022-12-16T12:47:55;98721.09;;;16.82;100.00
9672;BME280;4874;43.568;27.824;2022-12-16T12:50:49;98796.16;;;17.38;100.00
9672;BME280;4874;43.568;27.824;2022-12-16T12:53:46;98798.41;;;17.35;100.00
9672;BME280;4874;43.568;27.824;2022-12-16T12:59:28;98805.00;;;17.32;100.00
9672;BME280;4874;43.568;27.824;2022-12-16T13:02:17;98786.31;;;17.45;100.00
9672;BME280;4874;43.568;27.824;2022-12-16T13:05:05;98789.91;;;17.31;100.00
9672;BME280;4874;43.568;27.824;2022-12-16T13:07:50;98794.53;;;17.37;100.00
9672;BME280;4874;43.568;27.824;2022-12-16T13:10:36;98787.59;;;17.28;100.00
9672;BME280;4874;43.568;27.824;2022-12-16T13:13:34;98784.75;;;17.51;100.00
9672;BME280;4874;43.568;27.824;2022-12-16T13:19:38;98795.09;;;17.54;100.00
9672;BME280;4874;43.568;27.824;2022-12-16T13:22:34;98792.66;;;17.38;100.00
9672;BME280;4874;43.568;27.824;2022-12-16T13:25:30;98784.47;;;17.25;100.00
9672;BME280;4874;43.568;27.824;2022-12-16T13:28:22;98788.19;;;17.24;100.00
9672;BME280;4874;43.568;27.824;2022-12-16T13:31:08;98785.97;;;17.27;100.00
9672;BME280;4874;43.568;27.824;2022-12-16T13:33:53;98787.47;;;17.36;100.00
9672;BME280;4874;43.568;27.824;2022-12-16T13:36:39;98790.69;;;17.25;100.00
9672;BME280;4874;43.568;27.824;2022-12-16T13:39:27;98790.03;;;17.23;100.00
9672;BME280;4874;43.568;27.824;2022-12-16T13:45:37;98799.22;;;17.14;100.00
9672;BME280;4874;43.568;27.824;2022-12-16T13:48:37;98793.84;;;17.14;100.00
9672;BME280;4874;43.568;27.824;2022-12-16T13:57:36;98800.84;;;16.94;100.00
9672;BME280;4874;43.568;27.824;2022-12-16T14:00:24;98795.97;;;16.83;100.00
9672;BME280;4874;43.568;27.824;2022-12-16T14:03:14;98804.84;;;16.84;100.00
9672;BME280;4874;43.568;27.824;2022-12-16T14:06:03;98799.03;;;16.80;100.00
9672;BME280;4874;43.568;27.824;2022-12-16T14:08:48;98789.06;;;16.74;100.00
9672;BME280;4874;43.568;27.824;2022-12-16T14:11:56;98796.25;;;16.74;100.00
9672;BME280;4874;43.568;27.824;2022-12-16T14:14:41;98801.28;;;16.62;100.00
9672;BME280;4874;43.568;27.824;2022-12-16T14:17:40;98804.88;;;16.55;100.00
9672;BME280;4874;43.568;27.824;2022-12-16T14:20:31;98796.00;;;16.54;100.00
9672;BME280;4874;43.568;27.824;2022-12-16T14:26:42;98803.16;;;16.47;100.00
9672;BME280;4874;43.568;27.824;2022-12-16T14:29:27;98788.13;;;16.38;100.00
9672;BME280;4874;43.568;27.824;2022-12-16T14:32:20;98795.16;;;16.39;100.00
9672;BME280;4874;43.568;27.824;2022-12-16T14:35:30;98823.59;;;16.25;100.00
9672;BME280;4874;43.568;27.824;2022-12-16T14:38:25;98803.44;;;16.15;100.00
9672;BME280;4874;43.568;27.824;2022-12-16T14:41:20;98809.00;;;16.13;100.00
9672;BME280;4874;43.568;27.824;2022-12-16T14:44:15;98813.06;;;16.09;100.00
9672;BME280;4874;43.568;27.824;2022-12-16T14:47:01;98813.97;;;16.02;100.00
9672;BME280;4874;43.568;27.824;2022-12-16T14:49:50;98822.84;;;16.02;100.00
9672;BME280;4874;43.568;27.824;2022-12-16T14:52:36;98817.91;;;15.91;100.00
9672;BME280;4874;43.568;27.824;2022-12-16T14:55:26;98817.63;;;15.86;100.00
9672;BME280;4874;43.568;27.824;2022-12-16T14:58:18;98816.19;;;15.98;100.00
9672;BME280;4874;43.568;27.824;2022-12-16T15:01:06;98802.41;;;15.87;100.00
9672;BME280;4874;43.568;27.824;2022-12-16T15:03:56;98820.59;;;15.91;100.00
9672;BME280;4874;43.568;27.824;2022-12-16T15:06:42;98810.91;;;15.90;100.00
9672;BME280;4874;43.568;27.824;2022-12-16T15:09:30;98814.78;;;15.88;100.00
9672;BME280;4874;43.568;27.824;2022-12-16T15:12:18;98822.69;;;15.81;100.00
9672;BME280;4874;43.568;27.824;2022-12-16T15:15:04;98823.06;;;15.78;100.00
9672;BME280;4874;43.568;27.824;2022-12-16T15:17:52;98824.72;;;15.79;100.00
9672;BME280;4874;43.568;27.824;2022-12-16T15:20:49;98826.16;;;15.67;100.00
9672;BME280;4874;43.568;27.824;2022-12-16T15:23:37;98827.00;;;15.68;100.00
9672;BME280;4874;43.568;27.824;2022-12-16T15:26:24;98817.84;;;15.62;100.00
9672;BME280;4874;43.568;27.824;2022-12-16T15:32:26;98800.72;;;15.71;100.00
9672;BME280;4874;43.568;27.824;2022-12-16T15:38:17;98813.84;;;15.58;100.00
9672;BME280;4874;43.568;27.824;2022-12-16T15:41:03;98812.38;;;15.56;100.00
9672;BME280;4874;43.568;27.824;2022-12-16T15:43:49;98823.09;;;15.56;100.00
9672;BME280;4874;43.568;27.824;2022-12-16T15:46:35;98827.13;;;15.52;100.00
9672;BME280;4874;43.568;27.824;2022-12-16T15:49:21;98825.47;;;15.51;100.00
9672;BME280;4874;43.568;27.824;2022-12-16T15:55:24;98822.31;;;15.47;100.00
9672;BME280;4874;43.568;27.824;2022-12-16T15:58:18;98828.53;;;15.40;100.00
9672;BME280;4874;43.568;27.824;2022-12-16T16:01:13;98835.97;;;15.52;100.00
9672;BME280;4874;43.568;27.824;2022-12-16T16:03:59;98824.16;;;15.47;100.00